createdAt,value
2023-04-02T00:01:23.326Z,0.50
2023-04-02T00:04:10.413Z,0.70
2023-04-02T00:06:46.236Z,0.50
2023-04-02T00:09:30.871Z,1.05
2023-04-02T00:11:58.161Z,0.40
2023-04-02T00:14:29.771Z,0.85
2023-04-02T00:16:57.428Z,0.63
2023-04-02T00:19:43.212Z,0.30
2023-04-02T00:22:13.435Z,0.40
2023-04-02T00:24:40.277Z,0.70
2023-04-02T00:27:11.156Z,0.70
2023-04-02T00:29:45.407Z,0.77
2023-04-02T00:32:17.557Z,0.45
2023-04-02T00:34:44.913Z,0.93
2023-04-02T00:37:18.391Z,1.45
2023-04-02T00:39:46.232Z,0.70
2023-04-02T00:42:13.245Z,0.32
2023-04-02T00:44:44.484Z,0.70
2023-04-02T00:49:41.543Z,1.08
2023-04-02T00:52:13.374Z,0.60
2023-04-02T00:54:43.860Z,0.65
2023-04-02T00:57:16.589Z,1.33
2023-04-02T01:00:09.012Z,0.40
2023-04-02T01:02:38.615Z,0.60
2023-04-02T01:05:26.012Z,0.60
2023-04-02T01:07:58.898Z,0.50
2023-04-02T01:10:46.053Z,0.55
2023-04-02T01:13:33.102Z,0.57
2023-04-02T01:16:08.647Z,0.50
2023-04-02T01:19:02.149Z,0.63
2023-04-02T01:21:47.201Z,1.13
2023-04-02T01:24:14.240Z,0.55
2023-04-02T01:26:45.966Z,0.77
2023-04-02T01:29:14.354Z,1.05
2023-04-02T01:31:41.670Z,0.95
2023-04-02T01:34:09.301Z,0.90
2023-04-02T01:37:11.663Z,1.13
2023-04-02T01:39:56.792Z,1.05
2023-04-02T01:42:44.007Z,0.60
2023-04-02T01:45:13.028Z,0.73
2023-04-02T01:47:40.485Z,1.20
2023-04-02T01:50:17.713Z,1.45
2023-04-02T01:52:45.857Z,1.13
2023-04-02T01:55:14.680Z,1.40
2023-04-02T01:57:42.933Z,1.10
2023-04-02T02:00:14.984Z,0.55
2023-04-02T02:02:47.093Z,1.83
2023-04-02T02:05:15.259Z,1.77
2023-04-02T02:07:44.935Z,1.80
2023-04-02T02:10:16.583Z,0.60
2023-04-02T02:12:44.345Z,0.47
2023-04-02T02:15:18.525Z,0.93
2023-04-02T02:17:45.431Z,1.00
2023-04-02T02:20:13.155Z,0.93
2023-04-02T02:22:43.101Z,0.90
2023-04-02T02:25:20.222Z,1.00
2023-04-02T02:27:50.110Z,1.92
2023-04-02T02:30:22.023Z,0.85
2023-04-02T02:32:54.550Z,0.75
2023-04-02T02:35:28.959Z,0.60
2023-04-02T02:38:02.617Z,0.70
2023-04-02T02:40:34.452Z,1.35
2023-04-02T02:45:29.699Z,2.58
2023-04-02T02:47:57.513Z,1.13
2023-04-02T02:50:27.055Z,1.00
2023-04-02T02:52:55.669Z,0.60
2023-04-02T02:55:27.691Z,0.60
2023-04-02T02:58:12.120Z,0.38
2023-04-02T03:00:51.077Z,0.70
2023-04-02T03:03:22.410Z,0.60
2023-04-02T03:05:54.874Z,0.40
2023-04-02T03:08:37.043Z,0.85
2023-04-02T03:11:14.417Z,0.47
2023-04-02T03:13:46.879Z,1.33
2023-04-02T03:16:36.557Z,1.25
2023-04-02T03:19:26.808Z,2.10
2023-04-02T03:22:03.616Z,1.38
2023-04-02T03:24:53.244Z,1.10
2023-04-02T03:27:22.803Z,1.02
2023-04-02T03:29:55.010Z,1.15
2023-04-02T03:32:27.337Z,2.45
2023-04-02T03:34:57.080Z,1.00
2023-04-02T03:37:28.741Z,1.00
2023-04-02T03:40:21.890Z,1.15
2023-04-02T03:43:09.470Z,0.70
2023-04-02T03:45:38.586Z,0.70
2023-04-02T03:48:08.783Z,0.38
2023-04-02T03:50:43.113Z,0.50
2023-04-02T03:53:11.423Z,1.05
2023-04-02T03:55:39.975Z,0.50
2023-04-02T03:58:16.915Z,0.70
2023-04-02T04:00:55.994Z,0.70
2023-04-02T04:03:26.595Z,0.88
2023-04-02T04:08:27.353Z,2.80
2023-04-02T04:10:56.227Z,0.60
2023-04-02T04:13:28.923Z,0.68
2023-04-02T04:16:02.722Z,1.08
2023-04-02T04:18:38.130Z,0.95
2023-04-02T04:21:31.409Z,1.00
2023-04-02T04:24:07.778Z,0.80
2023-04-02T04:26:57.838Z,1.17
2023-04-02T04:29:38.401Z,0.90
2023-04-02T04:32:18.322Z,0.70
2023-04-02T04:34:53.832Z,1.35
2023-04-02T04:37:33.777Z,1.20
2023-04-02T04:40:32.085Z,0.93
2023-04-02T04:43:08.029Z,1.42
2023-04-02T04:45:41.025Z,0.98
2023-04-02T04:48:15.522Z,0.88
2023-04-02T04:51:03.927Z,1.42
2023-04-02T04:53:31.932Z,1.70
2023-04-02T04:56:16.073Z,1.35
2023-04-02T04:58:48.691Z,2.03
2023-04-02T05:01:23.307Z,2.07
2023-04-02T05:04:19.707Z,1.45
2023-04-02T05:07:15.922Z,1.65
2023-04-02T05:10:18.286Z,1.25
2023-04-02T05:12:52.065Z,0.73
2023-04-02T05:15:48.077Z,1.30
2023-04-02T05:18:37.906Z,1.73
2023-04-02T05:21:14.640Z,1.02
2023-04-02T05:24:03.996Z,1.00
2023-04-02T05:26:32.903Z,1.35
2023-04-02T05:29:28.724Z,1.10
2023-04-02T05:32:16.180Z,1.40
2023-04-02T05:34:47.036Z,1.25
2023-04-02T05:37:18.036Z,1.77
2023-04-02T05:39:45.962Z,2.00
2023-04-02T05:42:19.123Z,1.23
2023-04-02T05:45:12.734Z,0.95
2023-04-02T05:47:43.383Z,1.35
2023-04-02T05:50:23.275Z,2.35
2023-04-02T05:52:53.559Z,1.83
2023-04-02T05:55:28.223Z,1.48
2023-04-02T05:58:21.163Z,1.90
2023-04-02T06:01:01.727Z,2.17
2023-04-02T06:03:37.439Z,2.67
2023-04-02T06:06:08.311Z,2.03
2023-04-02T06:08:40.846Z,2.73
2023-04-02T06:11:09.619Z,2.17
2023-04-02T06:13:38.026Z,2.72
2023-04-02T06:16:06.819Z,1.92
2023-04-02T06:18:35.759Z,3.88
2023-04-02T06:21:05.666Z,1.90
2023-04-02T06:23:52.861Z,1.75
2023-04-02T06:26:25.241Z,2.22
2023-04-02T06:29:12.068Z,1.63
2023-04-02T06:31:48.325Z,1.00
2023-04-02T06:34:18.583Z,1.40
2023-04-02T06:36:58.772Z,1.42
2023-04-02T06:39:27.244Z,1.63
2023-04-02T06:41:59.000Z,2.05
2023-04-02T06:44:36.968Z,1.58
2023-04-02T06:47:43.435Z,1.17
2023-04-02T06:50:23.932Z,2.47
2023-04-02T06:52:56.522Z,1.20
2023-04-02T06:55:41.211Z,1.58
2023-04-02T06:58:09.524Z,0.80
2023-04-02T07:00:37.737Z,1.02
2023-04-02T07:03:07.876Z,0.60
2023-04-02T07:05:35.493Z,0.50
2023-04-02T07:08:02.443Z,0.57
2023-04-02T07:10:29.471Z,0.73
2023-04-02T07:12:56.261Z,0.88
2023-04-02T07:15:25.618Z,0.70
2023-04-02T07:17:55.060Z,0.75
2023-04-02T07:20:41.875Z,0.30
2023-04-02T07:23:14.842Z,0.60
2023-04-02T07:25:43.296Z,0.60
2023-04-02T07:28:10.201Z,0.43
2023-04-02T07:30:37.255Z,0.40
2023-04-02T07:33:04.141Z,0.63
2023-04-02T07:35:31.166Z,0.45
2023-04-02T07:37:58.054Z,1.88
2023-04-02T07:40:24.828Z,0.82
2023-04-02T07:42:51.764Z,0.38
2023-04-02T07:45:18.638Z,0.40
2023-04-02T07:47:45.536Z,0.68
2023-04-02T07:50:12.411Z,0.40
2023-04-02T07:52:40.646Z,0.60
2023-04-02T07:55:07.981Z,0.45
2023-04-02T07:57:39.091Z,0.50
2023-04-02T08:00:07.669Z,0.55
2023-04-02T08:02:39.180Z,0.75
2023-04-02T08:05:06.940Z,0.40
2023-04-02T08:07:33.840Z,0.60
2023-04-02T08:10:00.621Z,0.75
2023-04-02T08:12:27.383Z,0.68
2023-04-02T08:14:54.201Z,1.17
2023-04-02T08:17:21.169Z,0.70
2023-04-02T08:19:54.601Z,1.00
2023-04-02T08:22:22.042Z,0.85
2023-04-02T08:24:48.870Z,0.55
2023-04-02T08:27:15.805Z,0.50
2023-04-02T08:29:42.612Z,1.48
2023-04-02T08:32:09.478Z,0.30
2023-04-02T08:34:36.283Z,0.60
2023-04-02T08:37:03.097Z,0.40
2023-04-02T08:39:33.197Z,0.65
2023-04-02T08:42:26.474Z,0.43
2023-04-02T08:45:23.537Z,1.05
2023-04-02T08:47:55.606Z,1.00
2023-04-02T08:50:28.122Z,0.80
2023-04-02T08:52:55.106Z,1.52
2023-04-02T08:55:48.072Z,3.45
2023-04-02T08:58:33.591Z,1.30
2023-04-02T09:01:02.541Z,1.10
2023-04-02T09:03:35.997Z,0.95
2023-04-02T09:06:03.823Z,0.80
2023-04-02T09:08:31.519Z,0.82
2023-04-02T09:11:02.821Z,0.55
2023-04-02T09:13:30.894Z,0.50
2023-04-02T09:16:10.154Z,0.63
2023-04-02T09:18:37.470Z,0.90
2023-04-02T09:21:18.976Z,1.08
2023-04-02T09:23:45.793Z,1.10
2023-04-02T09:26:20.698Z,0.90
2023-04-02T09:28:47.793Z,1.10
2023-04-02T09:31:20.954Z,0.60
2023-04-02T09:33:49.147Z,1.00
2023-04-02T09:36:48.680Z,0.40
2023-04-02T09:39:19.340Z,0.90
2023-04-02T09:41:55.761Z,0.30
2023-04-02T09:44:31.342Z,0.70
2023-04-02T09:47:00.214Z,0.60
2023-04-02T09:49:31.766Z,0.85
2023-04-02T09:52:17.329Z,0.55
2023-04-02T09:54:44.435Z,1.40
2023-04-02T09:57:24.229Z,0.60
2023-04-02T10:00:25.134Z,1.08
2023-04-02T10:03:20.439Z,1.02
2023-04-02T10:05:47.685Z,1.30
2023-04-02T10:08:25.138Z,1.13
2023-04-02T10:10:54.426Z,0.50
2023-04-02T10:13:47.391Z,1.00
2023-04-02T10:16:49.377Z,1.00
2023-04-02T10:19:25.506Z,0.98
2023-04-02T10:21:54.080Z,0.70
2023-04-02T10:24:20.902Z,1.60
2023-04-02T10:27:02.677Z,0.75
2023-04-02T10:29:49.357Z,1.20
2023-04-02T10:32:21.693Z,1.00
2023-04-02T10:35:09.044Z,0.73
2023-04-02T10:38:04.886Z,1.50
2023-04-02T10:40:42.994Z,0.80
2023-04-02T10:43:28.516Z,0.50
2023-04-02T10:46:04.815Z,0.50
2023-04-02T10:49:00.813Z,0.73
2023-04-02T10:52:00.048Z,2.45
2023-04-02T10:54:33.345Z,0.57
2023-04-02T10:57:06.896Z,0.60
2023-04-02T10:59:39.773Z,0.43
2023-04-02T11:02:17.605Z,1.30
2023-04-02T11:04:47.040Z,0.80
2023-04-02T11:07:19.414Z,0.80
2023-04-02T11:09:48.679Z,0.63
2023-04-02T11:12:27.541Z,0.40
2023-04-02T11:14:55.980Z,1.15
2023-04-02T11:17:23.519Z,0.45
2023-04-02T11:19:50.509Z,0.30
2023-04-02T11:22:18.659Z,2.45
2023-04-02T11:24:52.233Z,0.40
2023-04-02T11:27:29.302Z,0.50
2023-04-02T11:30:07.828Z,0.50
2023-04-02T11:32:39.618Z,0.50
2023-04-02T11:35:26.301Z,0.40
2023-04-02T11:37:54.625Z,0.50
2023-04-02T11:40:41.135Z,0.63
2023-04-02T11:43:27.507Z,0.98
2023-04-02T11:45:55.782Z,0.60
2023-04-02T11:48:34.653Z,0.32
2023-04-02T11:51:04.946Z,0.77
2023-04-02T11:53:34.688Z,0.80
2023-04-02T11:56:33.701Z,0.60
2023-04-02T11:59:09.353Z,0.55
2023-04-02T12:01:45.709Z,1.48
2023-04-02T12:04:38.708Z,0.77
2023-04-02T12:07:35.087Z,0.25
2023-04-02T12:10:22.577Z,0.40
2023-04-02T12:12:50.527Z,0.50
2023-04-02T12:15:34.938Z,0.30
2023-04-02T12:18:07.352Z,0.50
2023-04-02T12:20:34.740Z,0.68
2023-04-02T12:23:04.409Z,0.43
2023-04-02T12:25:34.935Z,0.70
2023-04-02T12:28:19.488Z,0.70
2023-04-02T12:30:48.954Z,1.75
2023-04-02T12:33:45.949Z,0.80
2023-04-02T12:36:25.072Z,0.60
2023-04-02T12:38:56.157Z,0.85
2023-04-02T12:44:03.349Z,0.57
2023-04-02T12:46:31.297Z,0.43
2023-04-02T12:49:23.393Z,0.43
2023-04-02T12:51:51.713Z,0.40
2023-04-02T12:54:20.702Z,0.32
2023-04-02T12:56:48.338Z,0.40
2023-04-02T12:59:34.945Z,0.47
2023-04-02T13:02:03.837Z,0.70
2023-04-02T13:04:30.733Z,0.68
2023-04-02T13:06:57.590Z,0.38
2023-04-02T13:09:45.631Z,0.47
2023-04-02T13:12:26.632Z,0.43
2023-04-02T13:17:38.760Z,0.80
2023-04-02T13:20:24.637Z,0.70
2023-04-02T13:22:51.518Z,0.40
2023-04-02T13:25:18.344Z,0.50
2023-04-02T13:27:45.131Z,0.70
2023-04-02T13:30:19.546Z,1.02
2023-04-02T13:32:46.493Z,0.75
2023-04-02T13:35:13.340Z,0.80
2023-04-02T13:37:40.232Z,0.50
2023-04-02T13:40:09.107Z,0.32
2023-04-02T13:42:36.867Z,0.40
2023-04-02T13:45:04.173Z,0.40
2023-04-02T13:47:31.062Z,0.35
2023-04-02T13:49:58.141Z,0.40
2023-04-02T13:52:24.978Z,0.43
2023-04-02T13:54:54.289Z,0.70
2023-04-02T13:57:21.653Z,0.60
2023-04-02T13:59:48.531Z,0.50
2023-04-02T14:02:20.722Z,0.90
2023-04-02T14:04:52.597Z,0.60
2023-04-02T14:07:32.287Z,0.77
2023-04-02T14:10:01.929Z,0.90
2023-04-02T14:12:35.609Z,0.57
2023-04-02T14:15:25.957Z,0.73
2023-04-02T14:18:08.103Z,0.87
2023-04-02T14:20:43.189Z,0.70
2023-04-02T14:23:30.250Z,0.68
2023-04-02T14:26:20.125Z,0.50
2023-04-02T14:29:19.545Z,1.15
2023-04-02T14:32:00.156Z,0.95
2023-04-02T14:34:47.206Z,1.00
2023-04-02T14:37:39.989Z,1.08
2023-04-02T14:40:42.364Z,0.70
2023-04-02T14:43:16.055Z,0.60
2023-04-02T14:46:16.265Z,0.75
2023-04-02T14:49:07.040Z,1.02
2023-04-02T14:51:41.894Z,1.17
2023-04-02T14:54:44.108Z,2.08
2023-04-02T14:57:17.401Z,1.48
2023-04-02T15:00:06.420Z,2.15
2023-04-02T15:02:52.237Z,1.50
2023-04-02T15:05:21.844Z,0.52
2023-04-02T15:08:09.691Z,2.25
2023-04-02T15:10:44.675Z,1.10
2023-04-02T15:13:20.001Z,0.88
2023-04-02T15:15:49.349Z,2.85
2023-04-02T15:18:17.540Z,1.88
2023-04-02T15:21:04.688Z,0.63
2023-04-02T15:23:49.768Z,0.65
2023-04-02T15:26:24.154Z,0.90
2023-04-02T15:29:01.340Z,1.48
2023-04-02T15:31:28.602Z,1.10
2023-04-02T15:34:14.449Z,1.02
2023-04-02T15:37:01.626Z,1.05
2023-04-02T15:39:52.407Z,1.00
2023-04-02T15:42:23.876Z,2.67
2023-04-02T15:45:02.243Z,3.40
2023-04-02T15:47:36.915Z,1.90
2023-04-02T15:50:17.371Z,3.53
2023-04-02T15:52:55.150Z,2.67
2023-04-02T15:55:26.923Z,0.98
2023-04-02T15:58:20.134Z,1.08
2023-04-02T16:01:05.191Z,1.58
2023-04-02T16:03:46.822Z,2.25
2023-04-02T16:06:34.481Z,2.83
2023-04-02T16:09:22.027Z,2.35
2023-04-02T16:11:54.052Z,2.75
2023-04-02T16:14:28.679Z,1.77
2023-04-02T16:17:21.568Z,1.73
2023-04-02T16:20:11.247Z,2.15
2023-04-02T16:22:49.836Z,1.10
2023-04-02T16:25:25.612Z,3.00
2023-04-02T16:28:30.978Z,1.10
2023-04-02T16:31:27.439Z,4.70
2023-04-02T16:34:02.125Z,2.65
2023-04-02T16:37:02.473Z,3.22
2023-04-02T16:39:48.176Z,3.03
2023-04-02T16:42:20.908Z,3.88
2023-04-02T16:44:59.840Z,3.53
2023-04-02T16:47:56.381Z,5.25
2023-04-02T16:56:24.279Z,5.47
2023-04-02T16:59:09.481Z,1.88
2023-04-02T17:02:03.275Z,1.52
2023-04-02T17:04:46.798Z,0.80
2023-04-02T17:07:45.432Z,0.73
2023-04-02T17:10:39.932Z,0.77
2023-04-02T17:13:15.169Z,0.77
2023-04-02T17:15:43.319Z,0.90
2023-04-02T17:18:20.717Z,1.40
2023-04-02T17:20:48.348Z,1.00
2023-04-02T17:23:16.724Z,1.02
2023-04-02T17:25:53.346Z,1.38
2023-04-02T17:28:25.743Z,1.48
2023-04-02T17:30:56.205Z,1.70
2023-04-02T17:33:27.013Z,1.48
2023-04-02T17:36:16.547Z,1.50
2023-04-02T17:38:51.374Z,1.20
2023-04-02T17:41:23.588Z,1.40
2023-04-02T17:44:10.630Z,1.05
2023-04-02T17:46:53.771Z,1.40
2023-04-02T17:49:46.840Z,1.55
2023-04-02T17:52:22.806Z,1.83
2023-04-02T17:55:01.575Z,1.42
2023-04-02T17:57:35.189Z,1.30
2023-04-02T18:00:16.966Z,1.30
2023-04-02T18:02:56.611Z,1.30
2023-04-02T18:05:44.058Z,0.90
2023-04-02T18:08:30.564Z,0.68
2023-04-02T18:11:20.281Z,1.17
2023-04-02T18:13:59.293Z,0.70
2023-04-02T18:16:34.548Z,0.50
2023-04-02T18:19:24.494Z,0.50
2023-04-02T18:22:20.492Z,0.70
2023-04-02T18:25:19.356Z,1.02
2023-04-02T18:28:05.006Z,0.77
2023-04-02T18:30:56.173Z,1.02
2023-04-02T18:33:52.050Z,1.63
2023-04-02T18:36:44.170Z,0.98
2023-04-02T18:39:16.965Z,1.00
2023-04-02T18:41:59.435Z,1.00
2023-04-02T18:44:43.960Z,0.70
2023-04-02T18:47:20.362Z,1.23
2023-04-02T18:49:50.903Z,1.42
2023-04-02T18:52:18.642Z,1.30
2023-04-02T18:54:53.615Z,1.88
2023-04-02T18:57:31.067Z,0.85
2023-04-02T19:00:00.628Z,1.50
2023-04-02T19:02:47.746Z,1.52
2023-04-02T19:05:48.620Z,1.38
2023-04-02T19:08:47.147Z,1.15
2023-04-02T19:11:20.771Z,1.60
2023-04-02T19:13:49.809Z,1.50
2023-04-02T19:16:36.902Z,1.08
2023-04-02T19:19:32.061Z,0.90
2023-04-02T19:22:14.991Z,1.35
2023-04-02T19:24:57.083Z,1.23
2023-04-02T19:27:50.491Z,0.90
2023-04-02T19:30:43.491Z,1.30
2023-04-02T19:33:35.113Z,1.40
2023-04-02T19:36:24.233Z,1.60
2023-04-02T19:39:19.486Z,1.25
2023-04-02T19:41:48.608Z,1.45
2023-04-02T19:44:16.612Z,1.48
2023-04-02T19:46:43.717Z,1.60
2023-04-02T19:49:33.671Z,1.52
2023-04-02T19:52:02.655Z,0.77
2023-04-02T19:54:31.980Z,0.88
2023-04-02T19:57:03.101Z,1.35
2023-04-02T19:59:31.564Z,1.10
2023-04-02T20:02:00.648Z,0.50
2023-04-02T20:04:29.048Z,1.13
2023-04-02T20:06:56.168Z,0.90
2023-04-02T20:09:23.745Z,0.88
2023-04-02T20:11:50.847Z,0.68
2023-04-02T20:14:17.816Z,0.60
2023-04-02T20:16:45.897Z,0.95
2023-04-02T20:19:14.695Z,0.63
2023-04-02T20:21:41.598Z,1.15
2023-04-02T20:24:09.787Z,0.85
2023-04-02T20:26:37.864Z,0.88
2023-04-02T20:29:04.812Z,0.63
2023-04-02T20:31:33.193Z,0.75
2023-04-02T20:34:00.343Z,1.02
2023-04-02T20:36:28.323Z,0.93
2023-04-02T20:38:55.299Z,0.98
2023-04-02T20:41:22.185Z,1.13
2023-04-02T20:43:50.119Z,0.93
2023-04-02T20:46:18.746Z,0.80
2023-04-02T20:48:45.881Z,0.63
2023-04-02T20:51:15.630Z,0.90
2023-04-02T20:53:42.719Z,0.73
2023-04-02T20:56:13.333Z,1.17
2023-04-02T20:58:41.725Z,0.60
2023-04-02T21:01:14.959Z,1.40
2023-04-02T21:03:42.043Z,0.85
2023-04-02T21:06:16.010Z,1.13
2023-04-02T21:08:43.909Z,1.48
2023-04-02T21:11:11.097Z,0.98
2023-04-02T21:13:39.146Z,0.82
2023-04-02T21:16:12.350Z,0.80
2023-04-02T21:18:39.456Z,0.77
2023-04-02T21:21:06.683Z,0.82
2023-04-02T21:23:33.883Z,0.63
2023-04-02T21:26:02.443Z,1.15
2023-04-02T21:28:29.902Z,0.77
2023-04-02T21:31:07.656Z,0.90
2023-04-02T21:33:39.863Z,0.75
2023-04-02T21:36:14.747Z,0.77
2023-04-02T21:38:43.081Z,0.50
2023-04-02T21:41:11.795Z,0.73
2023-04-02T21:43:39.339Z,1.13
2023-04-02T21:46:07.321Z,0.70
2023-04-02T21:48:34.235Z,0.80
2023-04-02T21:51:15.686Z,0.93
2023-04-02T21:56:12.963Z,0.80
2023-04-02T21:58:40.550Z,0.90
2023-04-02T22:01:11.561Z,1.05
2023-04-02T22:03:49.077Z,1.27
2023-04-02T22:06:17.000Z,1.27
2023-04-02T22:08:44.634Z,1.05
2023-04-02T22:11:21.282Z,1.10
2023-04-02T22:13:50.614Z,0.70
2023-04-02T22:16:21.503Z,0.80
2023-04-02T22:18:48.767Z,0.60
2023-04-02T22:21:16.016Z,0.85
2023-04-02T22:23:45.922Z,1.08
2023-04-02T22:26:13.351Z,0.65
2023-04-02T22:28:42.439Z,0.60
2023-04-02T22:31:13.463Z,0.75
2023-04-02T22:33:42.943Z,0.80
2023-04-02T22:36:12.426Z,0.77
2023-04-02T22:38:40.977Z,0.73
2023-04-02T22:41:15.974Z,0.80
2023-04-02T22:43:44.156Z,0.93
2023-04-02T22:46:13.930Z,1.50
2023-04-02T22:48:43.818Z,1.10
2023-04-02T22:51:15.122Z,0.77
2023-04-02T22:56:16.462Z,0.90
2023-04-02T22:58:43.422Z,1.20
2023-04-02T23:01:15.156Z,0.88
2023-04-02T23:03:44.270Z,0.80
2023-04-02T23:06:12.168Z,0.75
2023-04-02T23:08:39.033Z,0.80
2023-04-02T23:11:07.660Z,0.80
2023-04-02T23:13:34.967Z,0.90
2023-04-02T23:16:02.502Z,0.90
2023-04-02T23:18:29.769Z,0.95
2023-04-02T23:20:56.693Z,0.65
2023-04-02T23:23:23.786Z,0.77
2023-04-02T23:25:50.665Z,0.93
2023-04-02T23:28:17.666Z,1.05
2023-04-02T23:30:44.573Z,0.90
2023-04-02T23:33:11.406Z,1.35
2023-04-02T23:35:38.269Z,0.70
2023-04-02T23:38:05.063Z,0.88
2023-04-02T23:40:31.914Z,0.85
2023-04-02T23:42:58.733Z,1.08
2023-04-02T23:45:25.922Z,0.70
2023-04-02T23:47:52.687Z,0.73
2023-04-02T23:50:19.541Z,1.40
2023-04-02T23:52:46.371Z,0.70
2023-04-02T23:55:13.317Z,1.02
2023-04-02T23:57:40.442Z,1.17
